createdAt,value
2023-01-19T00:52:45.744Z,86743.00
2023-01-19T00:53:45.699Z,86747.00
2023-01-19T00:54:45.667Z,86747.00
2023-01-19T00:55:45.604Z,86753.00
2023-01-19T00:56:45.579Z,86753.00
2023-01-19T00:57:45.532Z,86749.00
2023-01-19T00:58:45.467Z,86751.00
2023-01-19T00:59:45.424Z,86755.00
2023-01-19T01:00:45.419Z,86759.00
2023-01-19T01:01:46.540Z,86757.00
2023-01-19T01:02:45.406Z,86757.00
2023-01-19T01:03:45.250Z,86761.00
2023-01-19T01:04:45.227Z,86761.00
2023-01-19T01:05:45.192Z,86761.00
2023-01-19T01:06:45.128Z,86764.00
2023-01-19T01:07:45.102Z,86761.00
2023-01-19T01:08:45.080Z,86766.00
2023-01-19T01:09:45.024Z,86764.00
2023-01-19T01:10:44.964Z,86762.00
2023-01-19T01:11:44.936Z,86764.00
2023-01-19T01:12:57.307Z,86762.00
2023-01-19T01:14:44.809Z,86762.00
2023-01-19T01:15:44.775Z,86759.00
2023-01-19T01:16:44.765Z,86762.00
2023-01-19T01:17:44.699Z,86768.00
2023-01-19T01:18:44.673Z,86764.00
2023-01-19T01:19:44.632Z,86766.00
2023-01-19T01:20:44.613Z,86768.00
2023-01-19T01:21:44.566Z,86772.00
2023-01-19T01:22:44.529Z,86774.00
2023-01-19T01:23:44.471Z,86776.00
2023-01-19T01:24:44.426Z,86776.00
2023-01-19T01:25:44.401Z,86774.00
2023-01-19T01:26:44.342Z,86778.00
2023-01-19T01:27:44.307Z,86780.00
2023-01-19T01:28:44.301Z,86780.00
2023-01-19T01:29:44.227Z,86780.00
2023-01-19T01:30:44.215Z,86782.00
2023-01-19T01:31:44.163Z,86782.00
2023-01-19T01:32:44.111Z,86786.00
2023-01-19T01:33:44.076Z,86790.00
2023-01-19T01:34:44.032Z,86790.00
2023-01-19T01:35:43.997Z,86792.00
2023-01-19T01:36:43.951Z,86792.00
2023-01-19T01:37:43.918Z,86794.00
2023-01-19T01:38:43.879Z,86794.00
2023-01-19T01:39:43.836Z,86796.00
2023-01-19T01:40:43.788Z,86792.00
2023-01-19T01:41:43.753Z,86794.00
2023-01-19T01:42:43.715Z,86796.00
2023-01-19T01:43:43.660Z,86790.00
2023-01-19T01:44:43.610Z,86792.00
2023-01-19T01:45:43.665Z,86796.00
2023-01-19T01:46:43.533Z,86794.00
2023-01-19T01:47:43.465Z,86794.00
2023-01-19T01:48:43.413Z,86790.00
2023-01-19T01:49:43.388Z,86792.00
2023-01-19T01:50:43.336Z,86790.00
2023-01-19T01:51:43.310Z,86788.00
2023-01-19T01:52:43.274Z,86792.00
2023-01-19T01:53:44.201Z,86792.00
2023-01-19T01:54:43.157Z,86796.00
2023-01-19T01:55:43.134Z,86794.00
2023-01-19T01:56:43.067Z,86796.00
2023-01-19T01:57:43.025Z,86796.00
2023-01-19T01:58:42.968Z,86802.00
2023-01-19T01:59:42.927Z,86804.00
2023-01-19T02:00:42.901Z,86800.00
2023-01-19T02:01:43.005Z,86802.00
2023-01-19T02:02:42.809Z,86806.00
2023-01-19T02:03:42.741Z,86804.00
2023-01-19T02:04:42.693Z,86804.00
2023-01-19T02:05:42.646Z,86802.00
2023-01-19T02:06:42.605Z,86802.00
2023-01-19T02:07:42.559Z,86802.00
2023-01-19T02:08:42.532Z,86802.00
2023-01-19T02:09:42.484Z,86802.00
2023-01-19T02:10:42.446Z,86800.00
2023-01-19T02:11:42.408Z,86800.00
2023-01-19T02:12:42.364Z,86798.00
2023-01-19T02:13:42.329Z,86800.00
2023-01-19T02:14:42.275Z,86796.00
2023-01-19T02:15:42.229Z,86798.00
2023-01-19T02:16:42.257Z,86794.00
2023-01-19T02:17:42.131Z,86796.00
2023-01-19T02:18:42.147Z,86794.00
2023-01-19T02:19:42.058Z,86798.00
2023-01-19T02:20:42.012Z,86794.00
2023-01-19T02:21:41.955Z,86798.00
2023-01-19T02:22:41.923Z,86798.00
2023-01-19T02:23:41.879Z,86796.00
2023-01-19T02:24:41.836Z,86798.00
2023-01-19T02:25:41.787Z,86802.00
2023-01-19T02:26:41.746Z,86800.00
2023-01-19T02:27:41.701Z,86802.00
2023-01-19T02:28:41.660Z,86802.00
2023-01-19T02:29:41.608Z,86802.00
2023-01-19T02:30:41.616Z,86804.00
2023-01-19T02:31:41.561Z,86808.00
2023-01-19T02:32:41.488Z,86808.00
2023-01-19T02:33:41.452Z,86806.00
2023-01-19T02:34:41.407Z,86811.00
2023-01-19T02:35:41.349Z,86808.00
2023-01-19T02:36:41.325Z,86808.00
2023-01-19T02:37:41.271Z,86808.00
2023-01-19T02:38:41.219Z,86809.00
2023-01-19T02:39:41.180Z,86808.00
2023-01-19T02:40:41.135Z,86808.00
2023-01-19T02:41:41.089Z,86804.00
2023-01-19T02:42:41.112Z,86806.00
2023-01-19T02:43:41.017Z,86802.00
2023-01-19T02:44:40.956Z,86802.00
2023-01-19T02:45:40.962Z,86804.00
2023-01-19T02:46:40.890Z,86800.00
2023-01-19T02:47:40.832Z,86796.00
2023-01-19T02:48:40.796Z,86796.00
2023-01-19T02:49:40.751Z,86798.00
2023-01-19T02:50:40.717Z,86798.00
2023-01-19T02:51:40.675Z,86802.00
2023-01-19T02:52:40.630Z,86804.00
2023-01-19T02:53:40.598Z,86804.00
2023-01-19T02:54:40.563Z,86804.00
2023-01-19T02:55:40.525Z,86804.00
2023-01-19T02:56:40.479Z,86808.00
2023-01-19T02:57:40.431Z,86808.00
2023-01-19T02:58:40.405Z,86806.00
2023-01-19T02:59:40.361Z,86809.00
2023-01-19T03:00:40.335Z,86806.00
2023-01-19T03:01:40.348Z,86806.00
2023-01-19T03:02:40.250Z,86806.00
2023-01-19T03:03:40.191Z,86804.00
2023-01-19T03:04:40.142Z,86806.00
2023-01-19T03:05:40.097Z,86806.00
2023-01-19T03:06:40.062Z,86808.00
2023-01-19T03:07:40.005Z,86806.00
2023-01-19T03:08:39.967Z,86808.00
2023-01-19T03:09:39.927Z,86809.00
2023-01-19T03:10:39.884Z,86806.00
2023-01-19T03:11:39.836Z,86809.00
2023-01-19T03:12:39.804Z,86809.00
2023-01-19T03:13:39.756Z,86808.00
2023-01-19T03:14:39.728Z,86806.00
2023-01-19T03:15:39.728Z,86806.00
2023-01-19T03:16:39.703Z,86802.00
2023-01-19T03:17:39.654Z,86806.00
2023-01-19T03:18:39.577Z,86809.00
2023-01-19T03:19:39.532Z,86811.00
2023-01-19T03:20:39.475Z,86811.00
2023-01-19T03:21:39.438Z,86811.00
2023-01-19T03:22:39.398Z,86811.00
2023-01-19T03:23:39.366Z,86813.00
2023-01-19T03:24:39.323Z,86813.00
2023-01-19T03:25:39.277Z,86813.00
2023-01-19T03:26:39.241Z,86809.00
2023-01-19T03:27:39.193Z,86811.00
2023-01-19T03:28:39.147Z,86811.00
2023-01-19T03:29:39.113Z,86809.00
2023-01-19T03:30:39.115Z,86809.00
2023-01-19T03:31:39.011Z,86809.00
2023-01-19T03:32:38.976Z,86809.00
2023-01-19T03:33:38.933Z,86808.00
2023-01-19T05:55:33.284Z,86892.00
2023-01-19T05:56:33.250Z,86888.00
2023-01-19T05:57:33.214Z,86890.00
2023-01-19T05:58:33.183Z,86892.00
2023-01-19T05:59:33.129Z,86892.00
2023-01-19T06:00:33.082Z,86896.00
2023-01-19T06:01:33.047Z,86894.00
2023-01-19T06:02:33.010Z,86894.00
2023-01-19T06:03:33.012Z,86896.00
2023-01-19T06:04:32.929Z,86896.00
2023-01-19T06:05:32.886Z,86896.00
2023-01-19T06:06:32.858Z,86898.00
2023-01-19T06:07:32.814Z,86900.00
2023-01-19T06:08:32.767Z,86902.00
2023-01-19T06:09:32.731Z,86902.00
2023-01-19T06:10:32.733Z,86904.00
2023-01-19T06:11:32.647Z,86904.00
2023-01-19T06:12:32.656Z,86904.00
2023-01-19T06:13:32.568Z,86904.00
2023-01-19T06:14:32.531Z,86910.00
2023-01-19T06:15:32.488Z,86908.00
2023-01-19T06:16:32.497Z,86908.00
2023-01-19T06:17:32.407Z,86906.00
2023-01-19T06:18:32.357Z,86906.00
2023-01-19T06:19:32.319Z,86908.00
2023-01-19T06:20:32.265Z,86906.00
2023-01-19T06:21:32.225Z,86906.00
2023-01-19T06:22:32.188Z,86908.00
2023-01-19T06:23:32.132Z,86906.00
2023-01-19T06:24:32.096Z,86908.00
2023-01-19T06:25:32.055Z,86910.00
2023-01-19T06:26:31.999Z,86908.00
2023-01-19T06:27:31.994Z,86908.00
2023-01-19T06:28:31.927Z,86910.00
2023-01-19T06:29:31.887Z,86908.00
2023-01-19T06:30:31.857Z,86910.00
2023-01-19T06:31:31.807Z,86910.00
2023-01-19T06:32:31.759Z,86912.00
2023-01-19T06:33:31.681Z,86912.00
2023-01-19T06:34:31.643Z,86914.00
2023-01-19T06:35:31.596Z,86914.00
2023-01-19T06:36:31.611Z,86919.00
2023-01-19T06:37:31.516Z,86919.00
2023-01-19T06:38:31.471Z,86916.00
2023-01-19T06:39:31.455Z,86916.00
2023-01-19T06:40:31.395Z,86916.00
2023-01-19T06:41:31.359Z,86916.00
2023-01-19T06:42:31.325Z,86914.00
2023-01-19T06:43:31.273Z,86918.00
2023-01-19T06:44:32.197Z,86919.00
2023-01-19T06:45:31.228Z,86921.00
2023-01-19T06:46:31.139Z,86921.00
2023-01-19T06:47:31.111Z,86921.00
2023-01-19T06:48:31.052Z,86923.00
2023-01-19T06:49:31.006Z,86932.00
2023-01-19T06:50:30.973Z,86934.00
2023-01-19T06:51:30.908Z,86934.00
2023-01-19T06:52:30.870Z,86934.00
2023-01-19T06:53:30.818Z,86938.00
2023-01-19T06:54:30.755Z,86942.00
2023-01-19T06:55:30.712Z,86938.00
2023-01-19T06:56:30.648Z,86940.00
2023-01-19T06:57:30.640Z,86940.00
2023-01-19T06:58:30.565Z,86942.00
2023-01-19T06:59:30.689Z,86944.00
2023-01-19T07:00:30.511Z,86942.00
2023-01-19T07:01:30.548Z,86948.00
2023-01-19T07:02:30.516Z,86948.00
2023-01-19T07:03:30.394Z,86950.00
2023-01-19T07:04:30.279Z,86950.00
2023-01-19T07:05:30.215Z,86952.00
2023-01-19T07:06:30.162Z,86956.00
2023-01-19T07:07:30.138Z,86952.00
2023-01-19T07:08:30.078Z,86954.00
2023-01-19T07:09:30.005Z,86954.00
2023-01-19T07:11:24.797Z,86956.00
2023-01-19T07:11:32.282Z,86956.00
2023-01-19T07:12:30.089Z,86954.00
2023-01-19T07:13:30.037Z,86952.00
2023-01-19T07:14:29.990Z,86956.00
2023-01-19T07:15:29.931Z,86954.00
2023-01-19T07:16:29.914Z,86954.00
2023-01-19T07:17:29.864Z,86956.00
2023-01-19T07:18:29.790Z,86956.00
2023-01-19T07:19:29.732Z,86958.00
2023-01-19T07:20:29.693Z,86960.00
2023-01-19T07:21:29.627Z,86960.00
2023-01-19T07:22:29.570Z,86966.00
2023-01-19T07:23:29.525Z,86966.00
2023-01-19T07:24:29.464Z,86966.00
2023-01-19T07:25:29.427Z,86966.00
2023-01-19T07:26:29.361Z,86966.00
2023-01-19T07:27:29.307Z,86968.00
2023-01-19T07:28:29.343Z,86970.00
2023-01-19T07:29:29.191Z,86966.00
2023-01-19T07:30:29.269Z,86968.00
2023-01-19T07:31:29.181Z,86970.00
2023-01-19T07:32:29.049Z,86974.00
2023-01-19T07:33:28.991Z,86972.00
2023-01-19T07:34:28.932Z,86974.00
2023-01-19T07:35:28.894Z,86974.00
2023-01-19T07:36:28.846Z,86974.00
2023-01-19T07:37:28.776Z,86976.00
2023-01-19T07:38:28.743Z,86978.00
2023-01-19T07:39:28.677Z,86978.00
2023-01-19T07:40:28.648Z,86983.00
2023-01-19T07:41:28.601Z,86985.00
2023-01-19T07:42:28.533Z,86987.00
2023-01-19T07:43:28.497Z,86987.00
2023-01-19T07:44:28.429Z,86989.00
2023-01-19T07:45:28.433Z,86987.00
2023-01-19T07:46:28.328Z,86991.00
2023-01-19T07:47:28.273Z,86991.00
2023-01-19T07:48:28.234Z,86991.00
2023-01-19T07:49:28.171Z,86991.00
2023-01-19T07:50:28.138Z,86987.00
2023-01-19T07:51:28.095Z,86991.00
2023-01-19T07:52:28.040Z,86991.00
2023-01-19T07:53:28.008Z,86991.00
2023-01-19T07:54:27.974Z,86991.00
2023-01-19T07:55:27.930Z,86989.00
2023-01-19T07:56:27.918Z,86991.00
2023-01-19T07:57:27.844Z,86991.00
2023-01-19T07:58:27.827Z,86989.00
2023-01-19T07:59:27.748Z,86987.00
2023-01-19T08:00:27.709Z,86991.00
2023-01-19T08:01:27.839Z,86997.00
2023-01-19T08:02:27.625Z,86995.00
2023-01-19T08:03:27.594Z,86991.00
2023-01-19T08:04:27.582Z,86999.00
2023-01-19T08:05:27.461Z,86995.00
2023-01-19T08:06:27.413Z,86993.00
2023-01-19T08:07:27.381Z,86997.00
2023-01-19T08:08:27.325Z,86997.00
2023-01-19T08:09:27.269Z,86999.00
2023-01-19T08:10:27.235Z,87003.00
2023-01-19T08:11:27.185Z,87003.00
2023-01-19T08:12:27.119Z,87003.00
2023-01-19T08:13:27.081Z,87001.00
2023-01-19T08:14:27.051Z,87005.00
2023-01-19T08:15:27.078Z,87007.00
2023-01-19T08:16:26.929Z,87011.00
2023-01-19T08:17:26.884Z,87011.00
2023-01-19T08:18:27.244Z,87015.00
2023-01-19T08:19:26.798Z,87021.00
2023-01-19T08:20:26.756Z,87009.00
2023-01-19T08:21:26.702Z,87015.00
2023-01-19T08:22:26.671Z,87015.00
2023-01-19T08:23:26.621Z,87013.00
2023-01-19T08:24:26.569Z,87013.00
2023-01-19T08:25:26.526Z,87013.00
2023-01-19T08:26:26.472Z,87013.00
2023-01-19T08:27:26.438Z,87015.00
2023-01-19T08:28:26.396Z,87023.00
2023-01-19T08:29:26.359Z,87021.00
2023-01-19T08:30:26.330Z,87021.00
2023-01-19T08:31:26.380Z,87019.00
2023-01-19T08:32:26.289Z,87019.00
2023-01-19T08:33:26.190Z,87015.00
2023-01-19T08:34:26.158Z,87019.00
2023-01-19T08:35:26.097Z,87019.00
2023-01-19T08:36:26.063Z,87027.00
2023-01-19T08:37:26.755Z,87027.00
2023-01-19T08:38:26.034Z,87023.00
2023-01-19T08:39:25.932Z,87023.00
2023-01-19T08:40:25.904Z,87025.00
2023-01-19T08:41:25.859Z,87025.00
2023-01-19T08:42:25.800Z,87027.00
2023-01-19T08:43:25.767Z,87027.00
2023-01-19T08:44:25.735Z,87025.00
2023-01-19T08:45:25.681Z,87027.00
2023-01-19T08:46:25.661Z,87031.00
2023-01-19T08:47:25.631Z,87033.00
2023-01-19T08:48:25.554Z,87029.00
2023-01-19T08:49:25.514Z,87025.00
2023-01-19T08:50:25.481Z,87029.00
2023-01-19T08:51:25.444Z,87033.00
2023-01-19T08:52:25.403Z,87031.00
2023-01-19T08:53:25.354Z,87029.00
2023-01-19T08:54:25.313Z,87033.00
2023-01-19T08:55:25.276Z,87031.00
2023-01-19T08:56:25.229Z,87029.00
2023-01-19T08:57:25.181Z,87029.00
2023-01-19T08:58:25.136Z,87027.00
2023-01-19T08:59:25.095Z,87031.00
2023-01-19T09:00:25.050Z,87033.00
2023-01-19T09:01:25.120Z,87031.00
2023-01-19T09:02:25.110Z,87036.00
2023-01-19T09:03:24.952Z,87036.00
2023-01-19T09:04:24.893Z,87038.00
2023-01-19T09:05:24.846Z,87044.00
2023-01-19T09:06:24.863Z,87040.00
2023-01-19T09:07:24.715Z,87044.00
2023-01-19T09:08:24.668Z,87044.00
2023-01-19T09:09:24.639Z,87046.00
2023-01-19T09:10:24.558Z,87048.00
2023-01-19T09:11:24.519Z,87052.00
2023-01-19T09:12:24.460Z,87052.00
2023-01-19T09:13:24.421Z,87054.00
2023-01-19T09:14:24.363Z,87054.00
2023-01-19T09:15:24.320Z,87052.00
2023-01-19T09:16:24.299Z,87054.00
2023-01-19T09:17:24.235Z,87058.00
2023-01-19T09:18:24.157Z,87052.00
2023-01-19T09:19:24.114Z,87054.00
2023-01-19T09:20:24.055Z,87054.00
2023-01-19T09:24:23.879Z,87052.00
2023-01-19T10:12:21.821Z,87083.00
2023-01-19T10:19:21.489Z,87080.00
2023-01-19T10:33:20.785Z,87078.00
2023-01-19T10:35:20.692Z,87064.00
2023-01-19T10:36:20.648Z,87052.00
2023-01-19T10:37:20.606Z,87050.00
2023-01-19T10:38:20.545Z,87046.00
2023-01-19T10:39:20.542Z,87046.00
2023-01-19T10:40:20.445Z,87044.00
2023-01-19T10:41:20.420Z,87046.00
2023-01-19T10:42:20.361Z,87072.00
2023-01-19T10:43:20.270Z,87070.00
2023-01-19T10:44:20.227Z,87074.00
2023-01-19T10:45:20.191Z,87070.00
2023-01-19T10:46:20.227Z,87074.00
2023-01-19T10:47:20.167Z,87074.00
2023-01-19T10:48:20.034Z,87078.00
2023-01-19T10:49:19.971Z,87076.00
2023-01-19T10:50:19.952Z,87072.00
2023-01-19T10:51:19.925Z,87072.00
2023-01-19T10:52:19.818Z,87072.00
2023-01-19T10:53:19.779Z,87081.00
2023-01-19T10:54:19.719Z,87074.00
2023-01-19T10:55:19.672Z,87070.00
2023-01-19T10:56:19.644Z,87072.00
2023-01-19T10:57:19.641Z,87072.00
2023-01-19T10:58:19.513Z,87070.00
2023-01-19T10:59:19.467Z,87076.00
2023-01-19T11:00:19.493Z,87070.00
2023-01-19T11:01:19.506Z,87072.00
2023-01-19T11:02:19.540Z,87068.00
2023-01-19T11:03:19.349Z,87068.00
2023-01-19T11:04:19.288Z,87072.00
2023-01-19T11:05:19.188Z,87072.00
2023-01-19T11:06:19.139Z,87074.00
2023-01-19T11:07:19.082Z,87070.00
2023-01-19T11:08:19.049Z,87072.00
2023-01-19T11:09:18.979Z,87072.00
2023-01-19T11:10:18.951Z,87074.00
2023-01-19T11:11:19.799Z,87072.00
2023-01-19T13:11:13.401Z,87007.00
2023-01-19T13:12:13.377Z,87005.00
2023-01-19T13:13:13.312Z,87007.00
2023-01-19T13:14:13.271Z,87005.00
2023-01-19T13:15:13.226Z,87007.00
2023-01-19T13:16:13.265Z,87007.00
2023-01-19T13:17:13.144Z,87005.00
2023-01-19T13:18:13.093Z,87009.00
2023-01-19T13:19:13.046Z,87007.00
2023-01-19T13:20:13.065Z,87007.00
2023-01-19T13:21:12.964Z,87007.00
2023-01-19T13:22:12.921Z,87005.00
2023-01-19T13:23:12.881Z,87007.00
2023-01-19T13:24:12.834Z,87005.00
2023-01-19T13:25:12.793Z,87005.00
2023-01-19T13:26:12.749Z,87009.00
2023-01-19T13:27:12.705Z,87013.00
2023-01-19T13:28:12.679Z,87013.00
2023-01-19T13:29:12.628Z,87011.00
2023-01-19T13:30:12.661Z,87011.00
2023-01-19T13:31:12.675Z,87011.00
2023-01-19T13:32:12.458Z,87011.00
2023-01-19T13:33:12.422Z,87011.00
2023-01-19T13:34:12.375Z,87013.00
2023-01-19T13:35:12.318Z,87011.00
2023-01-19T13:36:12.290Z,87013.00
2023-01-19T13:37:12.232Z,87013.00
2023-01-19T13:38:12.186Z,87015.00
2023-01-19T13:39:12.139Z,87017.00
2023-01-19T13:40:12.114Z,87017.00
2023-01-19T13:41:12.064Z,87019.00
2023-01-19T13:42:12.011Z,87015.00
2023-01-19T13:43:11.961Z,87019.00
2023-01-19T13:44:11.923Z,87021.00
2023-01-19T13:45:11.893Z,87019.00
2023-01-19T13:46:11.858Z,87017.00
2023-01-19T13:47:11.792Z,87019.00
2023-01-19T13:48:11.763Z,87021.00
2023-01-19T13:49:11.717Z,87019.00
2023-01-19T13:50:11.723Z,87019.00
2023-01-19T13:51:11.638Z,87017.00
2023-01-19T13:52:11.584Z,87017.00
2023-01-19T13:53:11.700Z,87019.00
2023-01-19T13:54:11.502Z,87019.00
2023-01-19T13:55:11.438Z,87019.00
2023-01-19T13:56:11.420Z,87021.00
2023-01-19T13:57:11.365Z,87025.00
2023-01-19T13:58:11.342Z,87025.00
2023-01-19T13:59:11.302Z,87025.00
2023-01-19T14:00:11.366Z,87023.00
2023-01-19T14:01:11.272Z,87025.00
2023-01-19T14:02:11.205Z,87023.00
2023-01-19T14:03:11.155Z,87025.00
2023-01-19T14:04:11.067Z,87025.00
2023-01-19T14:05:11.013Z,87023.00
2023-01-19T14:06:11.026Z,87025.00
2023-01-19T14:07:10.947Z,87027.00
2023-01-19T14:08:10.932Z,87027.00
2023-01-19T14:09:10.846Z,87029.00
2023-01-19T14:10:10.843Z,87027.00
2023-01-19T14:11:10.758Z,87027.00
2023-01-19T14:12:10.741Z,87027.00
2023-01-19T14:13:10.700Z,87029.00
2023-01-19T14:14:10.662Z,87029.00
2023-01-19T14:15:10.589Z,87033.00
2023-01-19T14:16:10.587Z,87029.00
2023-01-19T14:17:10.510Z,87033.00
2023-01-19T14:18:10.482Z,87034.00
2023-01-19T14:19:10.416Z,87034.00
2023-01-19T14:20:10.425Z,87038.00
2023-01-19T14:21:10.331Z,87034.00
2023-01-19T14:22:10.287Z,87033.00
2023-01-19T14:23:10.244Z,87036.00
2023-01-19T14:24:10.208Z,87038.00
2023-01-19T14:25:10.160Z,87036.00
2023-01-19T14:26:10.123Z,87062.00
2023-01-19T14:27:10.080Z,87038.00
2023-01-19T14:28:10.047Z,87040.00
2023-01-19T14:29:10.021Z,87044.00
2023-01-19T14:30:10.001Z,87042.00
2023-01-19T14:31:09.949Z,87044.00
2023-01-19T14:32:09.901Z,87048.00
2023-01-19T14:33:09.851Z,87046.00
2023-01-19T14:34:09.819Z,87044.00
2023-01-19T14:35:10.246Z,87048.00
2023-01-19T14:36:09.733Z,87050.00
2023-01-19T14:37:09.689Z,87046.00
2023-01-19T14:38:09.665Z,87050.00
2023-01-19T14:39:09.619Z,87050.00
2023-01-19T14:40:09.597Z,87050.00
2023-01-19T14:41:09.529Z,87050.00
2023-01-19T14:42:09.503Z,87048.00
2023-01-19T14:43:09.447Z,87052.00
2023-01-19T14:44:09.421Z,87058.00
2023-01-19T14:45:09.843Z,87056.00
2023-01-19T14:46:09.358Z,87056.00
2023-01-19T14:47:09.321Z,87052.00
2023-01-19T14:48:09.261Z,87054.00
2023-01-19T14:49:09.230Z,87056.00
2023-01-19T14:50:09.262Z,87056.00
2023-01-19T14:51:09.146Z,87056.00
2023-01-19T14:52:09.093Z,87054.00
2023-01-19T14:53:09.077Z,87054.00
2023-01-19T14:54:09.016Z,87056.00
2023-01-19T14:55:09.357Z,87056.00
2023-01-19T14:56:08.939Z,87056.00
2023-01-19T14:57:08.917Z,87058.00
2023-01-19T15:35:07.700Z,87064.00
2023-01-19T15:36:07.291Z,87066.00
2023-01-19T15:37:07.255Z,87068.00
2023-01-19T15:38:07.210Z,87068.00
2023-01-19T15:39:07.169Z,87070.00
2023-01-19T15:40:07.148Z,87066.00
2023-01-19T15:41:07.112Z,87066.00
2023-01-19T15:42:07.064Z,87070.00
2023-01-19T15:43:07.038Z,87070.00
2023-01-19T15:44:07.000Z,87070.00
2023-01-19T15:45:07.574Z,87070.00
2023-01-19T15:46:06.931Z,87070.00
2023-01-19T15:47:06.878Z,87068.00
2023-01-19T15:48:06.842Z,87070.00
2023-01-19T15:49:06.787Z,87070.00
2023-01-19T15:50:06.736Z,87072.00
2023-01-19T15:51:06.721Z,87070.00
2023-01-19T15:52:06.674Z,87072.00
2023-01-19T15:53:06.641Z,87072.00
2023-01-19T15:54:06.584Z,87072.00
2023-01-19T15:55:06.620Z,87072.00
2023-01-19T15:56:06.508Z,87074.00
2023-01-19T15:57:06.458Z,87097.00
2023-01-19T15:58:06.433Z,87078.00
2023-01-19T15:59:06.392Z,87074.00
2023-01-19T16:00:06.358Z,87076.00
2023-01-19T16:01:06.418Z,87072.00
2023-01-19T16:02:06.491Z,87072.00
2023-01-19T16:03:06.251Z,87072.00
2023-01-19T16:04:06.248Z,87070.00
2023-01-19T16:05:06.190Z,87068.00
2023-01-19T16:06:06.130Z,87068.00
2023-01-19T16:07:06.119Z,87068.00
2023-01-19T16:08:06.075Z,87064.00
2023-01-19T16:09:06.031Z,87068.00
2023-01-19T16:10:05.989Z,87070.00
2023-01-19T16:11:05.956Z,87072.00
2023-01-19T16:12:05.929Z,87070.00
2023-01-19T16:13:05.886Z,87072.00
2023-01-19T16:14:05.872Z,87072.00
2023-01-19T16:15:05.822Z,87072.00
2023-01-19T16:16:05.836Z,87070.00
2023-01-19T16:17:05.761Z,87074.00
2023-01-19T16:18:05.745Z,87072.00
2023-01-19T16:19:05.697Z,87072.00
2023-01-19T16:20:05.661Z,87078.00
2023-01-19T16:21:05.633Z,87076.00
2023-01-19T16:22:05.621Z,87078.00
2023-01-19T16:23:19.338Z,87076.00
2023-01-19T16:24:06.520Z,87078.00
2023-01-19T16:25:05.480Z,87076.00
2023-01-19T16:26:05.452Z,87078.00
2023-01-19T16:27:05.410Z,87076.00
2023-01-19T16:28:05.379Z,87080.00
2023-01-19T16:29:05.343Z,87081.00
2023-01-19T16:30:05.299Z,87083.00
2023-01-19T16:31:05.267Z,87080.00
2023-01-19T16:32:05.217Z,87080.00
2023-01-19T16:33:05.191Z,87080.00
2023-01-19T16:34:05.151Z,87081.00
2023-01-19T16:35:05.118Z,87081.00
2023-01-19T16:36:05.075Z,87085.00
2023-01-19T16:37:05.044Z,87081.00
2023-01-19T16:38:05.010Z,87085.00
2023-01-19T16:39:04.990Z,87087.00
2023-01-19T16:40:04.944Z,87083.00
2023-01-19T16:41:04.908Z,87085.00
2023-01-19T16:42:04.880Z,87089.00
2023-01-19T16:43:04.846Z,87091.00
2023-01-19T16:44:04.814Z,87089.00
2023-01-19T16:45:04.832Z,87091.00
2023-01-19T16:46:04.788Z,87093.00
2023-01-19T16:47:04.715Z,87099.00
2023-01-19T16:48:04.679Z,87097.00
2023-01-19T16:49:04.633Z,87095.00
2023-01-19T16:50:04.606Z,87095.00
2023-01-19T16:51:04.565Z,87093.00
2023-01-19T16:52:04.522Z,87093.00
2023-01-19T16:53:04.496Z,87093.00
2023-01-19T16:54:04.450Z,87093.00
2023-01-19T16:55:04.416Z,87091.00
2023-01-19T16:56:04.390Z,87091.00
2023-01-19T16:57:04.353Z,87093.00
2023-01-19T16:58:04.318Z,87093.00
2023-01-19T16:59:04.287Z,87101.00
2023-01-19T17:00:04.266Z,87103.00
2023-01-19T17:01:04.296Z,87101.00
2023-01-19T17:02:04.377Z,87099.00
2023-01-19T17:03:04.219Z,87101.00
2023-01-19T17:04:04.103Z,87103.00
2023-01-19T17:05:04.107Z,87103.00
2023-01-19T17:06:04.036Z,87099.00
2023-01-19T17:07:04.010Z,87099.00
2023-01-19T17:08:03.966Z,87099.00
2023-01-19T17:09:03.933Z,87099.00
2023-01-19T17:10:03.894Z,87101.00
2023-01-19T17:11:03.873Z,87097.00
2023-01-19T17:12:03.836Z,87099.00
2023-01-19T17:13:03.787Z,87097.00
2023-01-19T17:14:03.772Z,87105.00
2023-01-19T17:15:03.732Z,87103.00
2023-01-19T17:16:03.686Z,87103.00
2023-01-19T17:17:03.742Z,87103.00
2023-01-19T17:18:03.634Z,87103.00
2023-01-19T17:19:03.614Z,87105.00
2023-01-19T17:20:03.566Z,87103.00
2023-01-19T17:21:03.518Z,87103.00
2023-01-19T17:22:03.503Z,87109.00
2023-01-19T17:23:03.473Z,87107.00
2023-01-19T17:24:03.427Z,87109.00
2023-01-19T17:25:03.414Z,87111.00
2023-01-19T17:26:03.385Z,87109.00
2023-01-19T17:27:03.385Z,87111.00
2023-01-19T17:28:03.325Z,87121.00
2023-01-19T17:29:03.324Z,87115.00
2023-01-19T17:30:03.287Z,87113.00
2023-01-19T17:31:03.399Z,87115.00
2023-01-19T17:32:03.228Z,87115.00
2023-01-19T17:33:03.199Z,87115.00
2023-01-19T17:34:03.171Z,87115.00
2023-01-19T17:35:03.190Z,87115.00
2023-01-19T17:36:03.116Z,87123.00
2023-01-19T17:37:03.390Z,87123.00
2023-01-19T17:38:03.052Z,87119.00
2023-01-19T17:39:03.024Z,87119.00
2023-01-19T17:40:02.995Z,87115.00
2023-01-19T17:41:02.959Z,87113.00
2023-01-19T17:42:02.927Z,87115.00
2023-01-19T17:43:02.905Z,87113.00
2023-01-19T17:44:02.893Z,87113.00
2023-01-19T17:45:02.885Z,87117.00
2023-01-19T17:46:02.811Z,87111.00
2023-01-19T17:47:02.766Z,87109.00
2023-01-19T17:48:02.734Z,87111.00
2023-01-19T17:49:02.710Z,87109.00
2023-01-19T17:50:02.668Z,87111.00
2023-01-19T17:51:02.637Z,87107.00
2023-01-19T17:52:02.613Z,87109.00
2023-01-19T17:53:02.562Z,87107.00
2023-01-19T17:54:02.513Z,87113.00
2023-01-19T17:55:02.496Z,87111.00
2023-01-19T17:56:02.447Z,87109.00
2023-01-19T17:57:02.418Z,87113.00
2023-01-19T17:58:02.386Z,87121.00
2023-01-19T17:59:02.358Z,87121.00
2023-01-19T18:00:02.319Z,87113.00
2023-01-19T18:01:02.369Z,87113.00
2023-01-19T18:02:02.298Z,87115.00
2023-01-19T18:03:02.343Z,87113.00
2023-01-19T18:04:02.224Z,87117.00
2023-01-19T18:05:02.180Z,87121.00
2023-01-19T18:06:02.139Z,87125.00
2023-01-19T18:07:02.132Z,87123.00
2023-01-19T18:08:02.068Z,87117.00
2023-01-19T18:09:02.039Z,87115.00
2023-01-19T18:10:02.041Z,87113.00
2023-01-19T18:11:01.986Z,87113.00
2023-01-19T18:12:01.956Z,87119.00
2023-01-19T18:13:01.922Z,87121.00
2023-01-19T18:14:01.861Z,87123.00
2023-01-19T18:15:01.824Z,87119.00
2023-01-19T18:16:01.821Z,87115.00
2023-01-19T18:17:01.758Z,87115.00
2023-01-19T18:18:01.733Z,87113.00
2023-01-19T18:19:01.689Z,87123.00
2023-01-19T18:20:01.651Z,87127.00
2023-01-19T18:21:01.625Z,87127.00
2023-01-19T18:22:01.598Z,87121.00
2023-01-19T18:23:01.580Z,87121.00
2023-01-19T18:24:01.539Z,87117.00
2023-01-19T18:25:01.496Z,87117.00
2023-01-19T18:26:01.445Z,87121.00
2023-01-19T18:27:01.431Z,87127.00
2023-01-19T18:28:01.366Z,87129.00
2023-01-19T18:29:01.343Z,87123.00
2023-01-19T18:30:01.318Z,87117.00
2023-01-19T18:31:01.325Z,87117.00
2023-01-19T18:32:01.240Z,87113.00
2023-01-19T18:33:01.187Z,87117.00
2023-01-19T18:34:01.161Z,87115.00
2023-01-19T18:35:01.121Z,87117.00
2023-01-19T18:36:01.098Z,87117.00
2023-01-19T18:37:01.045Z,87113.00
2023-01-19T18:38:01.014Z,87119.00
2023-01-19T18:39:00.988Z,87119.00
2023-01-19T18:40:00.948Z,87125.00
2023-01-19T18:41:00.909Z,87125.00
2023-01-19T18:42:00.872Z,87117.00
2023-01-19T18:43:00.847Z,87113.00
2023-01-19T18:44:00.811Z,87113.00